sensor_id;sensor_type;location;lat;lon;timestamp;temperature;humidity
26541;DHT22;14206;50.202;10.948;2023-04-03T00:00:54;3.90;94.80
26541;DHT22;14206;50.202;10.948;2023-04-03T00:03:22;3.90;92.80
26541;DHT22;14206;50.202;10.948;2023-04-03T00:05:48;3.90;92.80
26541;DHT22;14206;50.202;10.948;2023-04-03T00:08:15;3.90;93.00
26541;DHT22;14206;50.202;10.948;2023-04-03T00:10:42;3.90;92.50
26541;DHT22;14206;50.202;10.948;2023-04-03T00:13:09;4.00;93.10
26541;DHT22;14206;50.202;10.948;2023-04-03T00:15:36;4.00;92.20
26541;DHT22;14206;50.202;10.948;2023-04-03T00:18:03;4.10;91.80
26541;DHT22;14206;50.202;10.948;2023-04-03T00:20:30;4.10;91.50
26541;DHT22;14206;50.202;10.948;2023-04-03T00:22:58;4.10;91.40
26541;DHT22;14206;50.202;10.948;2023-04-03T00:25:24;4.10;91.40
26541;DHT22;14206;50.202;10.948;2023-04-03T00:27:52;4.20;91.10
26541;DHT22;14206;50.202;10.948;2023-04-03T00:30:20;4.20;91.00
26541;DHT22;14206;50.202;10.948;2023-04-03T00:32:49;4.20;90.90
26541;DHT22;14206;50.202;10.948;2023-04-03T00:35:17;4.20;90.80
26541;DHT22;14206;50.202;10.948;2023-04-03T00:37:45;4.20;91.00
26541;DHT22;14206;50.202;10.948;2023-04-03T00:40:13;4.10;91.40
26541;DHT22;14206;50.202;10.948;2023-04-03T00:42:42;4.10;91.20
26541;DHT22;14206;50.202;10.948;2023-04-03T00:47:45;4.10;91.00
26541;DHT22;14206;50.202;10.948;2023-04-03T00:50:12;4.20;91.10
26541;DHT22;14206;50.202;10.948;2023-04-03T00:52:39;4.20;91.90
26541;DHT22;14206;50.202;10.948;2023-04-03T00:55:08;4.20;91.90
26541;DHT22;14206;50.202;10.948;2023-04-03T00:57:36;4.20;91.60
26541;DHT22;14206;50.202;10.948;2023-04-03T01:00:10;4.20;91.90
26541;DHT22;14206;50.202;10.948;2023-04-03T01:02:38;4.20;92.10
26541;DHT22;14206;50.202;10.948;2023-04-03T01:05:08;4.20;91.70
26541;DHT22;14206;50.202;10.948;2023-04-03T01:07:36;4.10;92.20
26541;DHT22;14206;50.202;10.948;2023-04-03T01:10:07;4.10;91.90
26541;DHT22;14206;50.202;10.948;2023-04-03T01:12:39;4.10;91.50
26541;DHT22;14206;50.202;10.948;2023-04-03T01:15:30;4.10;91.60
26541;DHT22;14206;50.202;10.948;2023-04-03T01:18:01;4.10;91.50
26541;DHT22;14206;50.202;10.948;2023-04-03T01:28:13;4.10;91.90
26541;DHT22;14206;50.202;10.948;2023-04-03T01:33:17;4.10;91.60
26541;DHT22;14206;50.202;10.948;2023-04-03T01:35:46;4.10;91.60
26541;DHT22;14206;50.202;10.948;2023-04-03T01:38:13;4.10;92.10
26541;DHT22;14206;50.202;10.948;2023-04-03T01:40:40;4.10;91.40
26541;DHT22;14206;50.202;10.948;2023-04-03T01:43:07;4.10;91.40
26541;DHT22;14206;50.202;10.948;2023-04-03T01:45:34;4.00;90.90
26541;DHT22;14206;50.202;10.948;2023-04-03T01:48:00;4.00;90.90
26541;DHT22;14206;50.202;10.948;2023-04-03T01:50:28;3.90;90.90
26541;DHT22;14206;50.202;10.948;2023-04-03T01:52:54;3.90;90.60
26541;DHT22;14206;50.202;10.948;2023-04-03T01:55:21;3.80;91.00
26541;DHT22;14206;50.202;10.948;2023-04-03T01:57:48;3.70;90.90
26541;DHT22;14206;50.202;10.948;2023-04-03T02:00:15;3.70;90.80
26541;DHT22;14206;50.202;10.948;2023-04-03T02:02:43;3.60;91.50
26541;DHT22;14206;50.202;10.948;2023-04-03T02:05:10;3.60;91.60
26541;DHT22;14206;50.202;10.948;2023-04-03T02:07:37;3.60;91.40
26541;DHT22;14206;50.202;10.948;2023-04-03T02:10:04;3.50;91.40
26541;DHT22;14206;50.202;10.948;2023-04-03T02:12:32;3.50;90.90
26541;DHT22;14206;50.202;10.948;2023-04-03T02:14:59;3.50;91.30
26541;DHT22;14206;50.202;10.948;2023-04-03T02:17:26;3.50;91.60
26541;DHT22;14206;50.202;10.948;2023-04-03T02:19:54;3.40;91.40
26541;DHT22;14206;50.202;10.948;2023-04-03T02:22:21;3.40;91.40
26541;DHT22;14206;50.202;10.948;2023-04-03T02:24:48;3.40;91.80
26541;DHT22;14206;50.202;10.948;2023-04-03T02:27:14;3.40;91.70
26541;DHT22;14206;50.202;10.948;2023-04-03T02:29:41;3.30;91.90
26541;DHT22;14206;50.202;10.948;2023-04-03T02:32:08;3.30;92.10
26541;DHT22;14206;50.202;10.948;2023-04-03T02:34:35;3.30;92.30
26541;DHT22;14206;50.202;10.948;2023-04-03T02:37:04;3.30;92.30
26541;DHT22;14206;50.202;10.948;2023-04-03T02:39:30;3.30;92.20
26541;DHT22;14206;50.202;10.948;2023-04-03T02:41:58;3.30;92.00
26541;DHT22;14206;50.202;10.948;2023-04-03T02:44:26;3.30;92.10
26541;DHT22;14206;50.202;10.948;2023-04-03T02:46:53;3.30;92.10
26541;DHT22;14206;50.202;10.948;2023-04-03T02:49:20;3.30;92.00
26541;DHT22;14206;50.202;10.948;2023-04-03T02:51:46;3.30;92.10
26541;DHT22;14206;50.202;10.948;2023-04-03T02:54:14;3.30;91.80
26541;DHT22;14206;50.202;10.948;2023-04-03T02:56:45;3.30;91.80
26541;DHT22;14206;50.202;10.948;2023-04-03T02:59:12;3.30;91.70
26541;DHT22;14206;50.202;10.948;2023-04-03T03:01:40;3.30;91.80
26541;DHT22;14206;50.202;10.948;2023-04-03T03:04:07;3.20;92.00
26541;DHT22;14206;50.202;10.948;2023-04-03T03:06:34;3.30;91.80
26541;DHT22;14206;50.202;10.948;2023-04-03T03:09:02;3.20;91.60
26541;DHT22;14206;50.202;10.948;2023-04-03T03:11:30;3.20;91.50
26541;DHT22;14206;50.202;10.948;2023-04-03T03:13:57;3.10;91.60
26541;DHT22;14206;50.202;10.948;2023-04-03T03:16:25;3.10;91.60
26541;DHT22;14206;50.202;10.948;2023-04-03T03:18:52;3.10;91.60
26541;DHT22;14206;50.202;10.948;2023-04-03T03:21:18;3.00;91.30
26541;DHT22;14206;50.202;10.948;2023-04-03T03:23:45;3.00;91.80
26541;DHT22;14206;50.202;10.948;2023-04-03T03:26:12;3.00;91.80
26541;DHT22;14206;50.202;10.948;2023-04-03T03:28:39;3.00;91.90
26541;DHT22;14206;50.202;10.948;2023-04-03T03:31:08;3.00;92.00
26541;DHT22;14206;50.202;10.948;2023-04-03T03:33:37;2.90;92.00
26541;DHT22;14206;50.202;10.948;2023-04-03T03:36:04;3.00;92.10
26541;DHT22;14206;50.202;10.948;2023-04-03T03:38:31;2.90;91.80
26541;DHT22;14206;50.202;10.948;2023-04-03T03:41:00;2.90;92.00
26541;DHT22;14206;50.202;10.948;2023-04-03T03:43:27;2.90;91.70
26541;DHT22;14206;50.202;10.948;2023-04-03T03:45:54;2.90;91.90
26541;DHT22;14206;50.202;10.948;2023-04-03T03:48:22;2.90;92.10
26541;DHT22;14206;50.202;10.948;2023-04-03T03:50:50;2.90;91.90
26541;DHT22;14206;50.202;10.948;2023-04-03T03:53:19;2.90;91.90
26541;DHT22;14206;50.202;10.948;2023-04-03T03:55:49;2.90;92.20
26541;DHT22;14206;50.202;10.948;2023-04-03T03:58:18;2.90;92.10
26541;DHT22;14206;50.202;10.948;2023-04-03T04:00:45;2.80;92.10
26541;DHT22;14206;50.202;10.948;2023-04-03T04:03:12;2.80;91.70
26541;DHT22;14206;50.202;10.948;2023-04-03T04:05:40;2.80;91.90
26541;DHT22;14206;50.202;10.948;2023-04-03T04:08:07;2.70;92.10
26541;DHT22;14206;50.202;10.948;2023-04-03T04:10:34;2.70;92.20
26541;DHT22;14206;50.202;10.948;2023-04-03T04:13:02;2.60;92.20
26541;DHT22;14206;50.202;10.948;2023-04-03T04:15:29;2.60;92.30
26541;DHT22;14206;50.202;10.948;2023-04-03T04:17:56;2.50;92.20
26541;DHT22;14206;50.202;10.948;2023-04-03T04:20:24;2.40;92.30
26541;DHT22;14206;50.202;10.948;2023-04-03T04:22:52;2.40;92.10
26541;DHT22;14206;50.202;10.948;2023-04-03T04:25:20;2.20;92.40
26541;DHT22;14206;50.202;10.948;2023-04-03T04:27:47;2.20;92.70
26541;DHT22;14206;50.202;10.948;2023-04-03T04:30:14;2.10;92.80
26541;DHT22;14206;50.202;10.948;2023-04-03T04:32:44;2.00;92.80
26541;DHT22;14206;50.202;10.948;2023-04-03T04:35:11;1.90;92.90
26541;DHT22;14206;50.202;10.948;2023-04-03T04:37:43;1.90;93.00
26541;DHT22;14206;50.202;10.948;2023-04-03T04:40:11;1.80;93.20
26541;DHT22;14206;50.202;10.948;2023-04-03T04:42:38;1.70;93.30
26541;DHT22;14206;50.202;10.948;2023-04-03T04:45:06;1.70;93.50
26541;DHT22;14206;50.202;10.948;2023-04-03T04:47:34;1.60;93.40
26541;DHT22;14206;50.202;10.948;2023-04-03T04:50:03;1.60;93.50
26541;DHT22;14206;50.202;10.948;2023-04-03T04:52:31;1.60;93.80
26541;DHT22;14206;50.202;10.948;2023-04-03T04:54:58;1.60;93.80
26541;DHT22;14206;50.202;10.948;2023-04-03T04:57:26;1.50;93.60
26541;DHT22;14206;50.202;10.948;2023-04-03T04:59:54;1.50;93.70
26541;DHT22;14206;50.202;10.948;2023-04-03T05:02:20;1.50;93.60
26541;DHT22;14206;50.202;10.948;2023-04-03T05:04:48;1.50;93.50
26541;DHT22;14206;50.202;10.948;2023-04-03T05:07:20;1.50;93.80
26541;DHT22;14206;50.202;10.948;2023-04-03T05:09:47;1.50;93.70
26541;DHT22;14206;50.202;10.948;2023-04-03T05:12:16;1.50;93.70
26541;DHT22;14206;50.202;10.948;2023-04-03T05:14:49;1.40;93.70
26541;DHT22;14206;50.202;10.948;2023-04-03T05:17:16;1.40;93.50
26541;DHT22;14206;50.202;10.948;2023-04-03T05:19:48;1.50;93.70
26541;DHT22;14206;50.202;10.948;2023-04-03T05:22:16;1.50;93.70
26541;DHT22;14206;50.202;10.948;2023-04-03T05:24:44;1.50;93.80
26541;DHT22;14206;50.202;10.948;2023-04-03T05:27:11;1.50;93.80
26541;DHT22;14206;50.202;10.948;2023-04-03T05:29:42;1.50;93.60
26541;DHT22;14206;50.202;10.948;2023-04-03T05:32:13;1.50;93.70
26541;DHT22;14206;50.202;10.948;2023-04-03T05:34:40;1.60;93.40
26541;DHT22;14206;50.202;10.948;2023-04-03T05:37:07;1.60;93.40
26541;DHT22;14206;50.202;10.948;2023-04-03T05:39:35;1.60;93.20
26541;DHT22;14206;50.202;10.948;2023-04-03T05:42:03;1.60;93.40
26541;DHT22;14206;50.202;10.948;2023-04-03T05:44:30;1.70;93.50
26541;DHT22;14206;50.202;10.948;2023-04-03T05:46:57;1.70;93.30
26541;DHT22;14206;50.202;10.948;2023-04-03T05:49:24;1.70;93.20
26541;DHT22;14206;50.202;10.948;2023-04-03T05:51:51;1.80;93.20
26541;DHT22;14206;50.202;10.948;2023-04-03T05:54:28;1.80;93.20
26541;DHT22;14206;50.202;10.948;2023-04-03T05:57:02;1.80;93.00
26541;DHT22;14206;50.202;10.948;2023-04-03T05:59:29;1.80;92.90
26541;DHT22;14206;50.202;10.948;2023-04-03T06:01:58;1.90;92.60
26541;DHT22;14206;50.202;10.948;2023-04-03T06:04:25;1.90;92.70
26541;DHT22;14206;50.202;10.948;2023-04-03T06:06:56;2.00;92.70
26541;DHT22;14206;50.202;10.948;2023-04-03T06:09:26;2.00;92.70
26541;DHT22;14206;50.202;10.948;2023-04-03T06:11:56;2.10;92.30
26541;DHT22;14206;50.202;10.948;2023-04-03T06:14:26;2.20;91.50
26541;DHT22;14206;50.202;10.948;2023-04-03T06:16:54;2.20;91.80
26541;DHT22;14206;50.202;10.948;2023-04-03T06:19:21;2.30;91.70
26541;DHT22;14206;50.202;10.948;2023-04-03T06:21:52;2.40;91.50
26541;DHT22;14206;50.202;10.948;2023-04-03T06:24:19;2.60;90.60
26541;DHT22;14206;50.202;10.948;2023-04-03T06:26:48;2.80;90.20
26541;DHT22;14206;50.202;10.948;2023-04-03T06:29:15;3.00;90.10
26541;DHT22;14206;50.202;10.948;2023-04-03T06:31:42;3.20;89.10
26541;DHT22;14206;50.202;10.948;2023-04-03T06:34:09;3.30;89.00
26541;DHT22;14206;50.202;10.948;2023-04-03T06:36:39;3.50;87.80
26541;DHT22;14206;50.202;10.948;2023-04-03T06:39:07;3.60;87.90
26541;DHT22;14206;50.202;10.948;2023-04-03T06:41:35;3.60;87.30
26541;DHT22;14206;50.202;10.948;2023-04-03T06:44:03;3.70;87.10
26541;DHT22;14206;50.202;10.948;2023-04-03T06:46:30;3.70;87.10
26541;DHT22;14206;50.202;10.948;2023-04-03T06:48:57;3.60;86.20
26541;DHT22;14206;50.202;10.948;2023-04-03T06:51:28;3.60;86.80
26541;DHT22;14206;50.202;10.948;2023-04-03T06:53:57;3.60;86.60
26541;DHT22;14206;50.202;10.948;2023-04-03T06:56:25;3.50;86.60
26541;DHT22;14206;50.202;10.948;2023-04-03T06:58:54;3.50;86.10
26541;DHT22;14206;50.202;10.948;2023-04-03T07:01:21;3.40;86.40
26541;DHT22;14206;50.202;10.948;2023-04-03T07:03:49;3.40;86.20
26541;DHT22;14206;50.202;10.948;2023-04-03T07:06:17;3.40;86.50
26541;DHT22;14206;50.202;10.948;2023-04-03T07:08:45;3.40;86.10
26541;DHT22;14206;50.202;10.948;2023-04-03T07:11:12;3.30;85.70
26541;DHT22;14206;50.202;10.948;2023-04-03T07:13:39;3.30;86.30
26541;DHT22;14206;50.202;10.948;2023-04-03T07:16:07;3.40;85.70
26541;DHT22;14206;50.202;10.948;2023-04-03T07:18:34;3.50;85.80
26541;DHT22;14206;50.202;10.948;2023-04-03T07:21:02;3.60;85.50
26541;DHT22;14206;50.202;10.948;2023-04-03T07:23:29;3.70;84.80
26541;DHT22;14206;50.202;10.948;2023-04-03T07:25:56;3.90;85.20
26541;DHT22;14206;50.202;10.948;2023-04-03T07:28:23;4.00;84.70
26541;DHT22;14206;50.202;10.948;2023-04-03T07:30:53;4.20;84.40
26541;DHT22;14206;50.202;10.948;2023-04-03T07:33:22;4.40;83.30
26541;DHT22;14206;50.202;10.948;2023-04-03T07:35:49;4.70;82.60
26541;DHT22;14206;50.202;10.948;2023-04-03T07:38:16;5.00;82.40
26541;DHT22;14206;50.202;10.948;2023-04-03T07:40:47;5.20;81.60
26541;DHT22;14206;50.202;10.948;2023-04-03T07:43:15;5.50;80.50
26541;DHT22;14206;50.202;10.948;2023-04-03T07:45:42;5.50;79.70
26541;DHT22;14206;50.202;10.948;2023-04-03T07:48:13;5.50;79.10
26541;DHT22;14206;50.202;10.948;2023-04-03T07:50:40;5.50;79.20
26541;DHT22;14206;50.202;10.948;2023-04-03T07:53:07;5.60;79.00
26541;DHT22;14206;50.202;10.948;2023-04-03T07:55:35;5.60;79.00
26541;DHT22;14206;50.202;10.948;2023-04-03T07:58:07;5.60;78.40
26541;DHT22;14206;50.202;10.948;2023-04-03T08:00:33;6.30;80.00
26541;DHT22;14206;50.202;10.948;2023-04-03T08:03:00;7.60;75.80
26541;DHT22;14206;50.202;10.948;2023-04-03T08:05:28;7.90;74.50
26541;DHT22;14206;50.202;10.948;2023-04-03T08:07:55;8.70;71.60
26541;DHT22;14206;50.202;10.948;2023-04-03T08:10:22;10.10;70.60
26541;DHT22;14206;50.202;10.948;2023-04-03T08:12:49;11.90;67.60
26541;DHT22;14206;50.202;10.948;2023-04-03T08:15:15;12.70;63.20
26541;DHT22;14206;50.202;10.948;2023-04-03T08:17:42;13.90;59.90
26541;DHT22;14206;50.202;10.948;2023-04-03T08:20:10;15.00;57.30
26541;DHT22;14206;50.202;10.948;2023-04-03T08:22:36;15.30;56.70
26541;DHT22;14206;50.202;10.948;2023-04-03T08:25:03;16.90;56.30
26541;DHT22;14206;50.202;10.948;2023-04-03T08:27:30;18.10;52.20
26541;DHT22;14206;50.202;10.948;2023-04-03T08:30:00;18.40;50.00
26541;DHT22;14206;50.202;10.948;2023-04-03T08:32:27;19.60;46.70
26541;DHT22;14206;50.202;10.948;2023-04-03T08:34:54;20.10;45.20
26541;DHT22;14206;50.202;10.948;2023-04-03T08:37:21;20.40;46.40
26541;DHT22;14206;50.202;10.948;2023-04-03T08:39:48;20.90;44.80
26541;DHT22;14206;50.202;10.948;2023-04-03T08:42:41;21.70;44.40
26541;DHT22;14206;50.202;10.948;2023-04-03T08:48:13;22.90;39.90
26541;DHT22;14206;50.202;10.948;2023-04-03T08:50:46;22.80;40.10
26541;DHT22;14206;50.202;10.948;2023-04-03T08:53:26;21.60;40.50
26541;DHT22;14206;50.202;10.948;2023-04-03T08:55:55;19.30;41.40
26541;DHT22;14206;50.202;10.948;2023-04-03T08:58:25;17.00;43.30
26541;DHT22;14206;50.202;10.948;2023-04-03T09:03:33;15.80;47.00
26541;DHT22;14206;50.202;10.948;2023-04-03T09:06:07;15.90;45.30
26541;DHT22;14206;50.202;10.948;2023-04-03T09:08:46;16.00;46.30
26541;DHT22;14206;50.202;10.948;2023-04-03T09:11:41;16.00;45.70
26541;DHT22;14206;50.202;10.948;2023-04-03T09:20:11;15.60;47.80
26541;DHT22;14206;50.202;10.948;2023-04-03T09:22:44;17.00;45.20
26541;DHT22;14206;50.202;10.948;2023-04-03T09:25:27;17.90;42.40
26541;DHT22;14206;50.202;10.948;2023-04-03T09:27:58;18.10;42.40
26541;DHT22;14206;50.202;10.948;2023-04-03T09:30:26;17.00;41.60
26541;DHT22;14206;50.202;10.948;2023-04-03T09:32:55;15.90;43.20
26541;DHT22;14206;50.202;10.948;2023-04-03T09:35:26;16.10;44.90
26541;DHT22;14206;50.202;10.948;2023-04-03T09:40:43;17.80;43.90
26541;DHT22;14206;50.202;10.948;2023-04-03T09:43:22;18.70;43.00
26541;DHT22;14206;50.202;10.948;2023-04-03T09:45:50;19.30;42.40
26541;DHT22;14206;50.202;10.948;2023-04-03T09:48:23;19.60;39.30
26541;DHT22;14206;50.202;10.948;2023-04-03T09:53:42;16.80;42.10
26541;DHT22;14206;50.202;10.948;2023-04-03T09:58:45;15.00;44.10
26541;DHT22;14206;50.202;10.948;2023-04-03T10:01:27;15.70;45.00
26541;DHT22;14206;50.202;10.948;2023-04-03T10:04:08;16.90;44.30
26541;DHT22;14206;50.202;10.948;2023-04-03T10:06:42;17.50;42.30
26541;DHT22;14206;50.202;10.948;2023-04-03T10:09:23;18.10;42.40
26541;DHT22;14206;50.202;10.948;2023-04-03T10:12:07;19.00;41.70
26541;DHT22;14206;50.202;10.948;2023-04-03T10:14:41;20.00;40.70
26541;DHT22;14206;50.202;10.948;2023-04-03T10:19:56;20.50;36.90
26541;DHT22;14206;50.202;10.948;2023-04-03T10:22:39;20.30;37.50
26541;DHT22;14206;50.202;10.948;2023-04-03T10:30:47;20.50;35.50
26541;DHT22;14206;50.202;10.948;2023-04-03T10:39:10;21.10;36.40
26541;DHT22;14206;50.202;10.948;2023-04-03T10:42:02;21.40;35.80
26541;DHT22;14206;50.202;10.948;2023-04-03T10:45:10;21.30;33.50
26541;DHT22;14206;50.202;10.948;2023-04-03T10:48:33;20.80;34.00
26541;DHT22;14206;50.202;10.948;2023-04-03T11:01:33;20.80;33.00
26541;DHT22;14206;50.202;10.948;2023-04-03T11:04:04;20.30;33.40
26541;DHT22;14206;50.202;10.948;2023-04-03T11:06:39;20.50;33.90
26541;DHT22;14206;50.202;10.948;2023-04-03T11:09:11;20.80;33.30
26541;DHT22;14206;50.202;10.948;2023-04-03T11:11:43;20.80;33.70
26541;DHT22;14206;50.202;10.948;2023-04-03T11:14:31;21.00;32.20
26541;DHT22;14206;50.202;10.948;2023-04-03T11:18:07;21.00;34.10
26541;DHT22;14206;50.202;10.948;2023-04-03T11:20:21;21.40;36.00
26541;DHT22;14206;50.202;10.948;2023-04-03T11:23:03;21.60;34.10
26541;DHT22;14206;50.202;10.948;2023-04-03T11:25:32;20.90;32.70
26541;DHT22;14206;50.202;10.948;2023-04-03T11:28:05;20.50;34.30
26541;DHT22;14206;50.202;10.948;2023-04-03T11:30:39;20.50;34.10
26541;DHT22;14206;50.202;10.948;2023-04-03T11:35:47;20.70;34.00
26541;DHT22;14206;50.202;10.948;2023-04-03T11:38:21;21.00;35.80
26541;DHT22;14206;50.202;10.948;2023-04-03T11:40:50;21.50;36.30
26541;DHT22;14206;50.202;10.948;2023-04-03T11:43:27;21.60;34.70
26541;DHT22;14206;50.202;10.948;2023-04-03T11:50:59;21.30;33.60
26541;DHT22;14206;50.202;10.948;2023-04-03T12:04:14;20.90;35.30
26541;DHT22;14206;50.202;10.948;2023-04-03T12:06:51;20.30;35.80
26541;DHT22;14206;50.202;10.948;2023-04-03T12:12:00;18.50;36.00
26541;DHT22;14206;50.202;10.948;2023-04-03T12:14:28;18.10;36.80
26541;DHT22;14206;50.202;10.948;2023-04-03T12:16:56;17.70;37.60
26541;DHT22;14206;50.202;10.948;2023-04-03T12:19:31;17.40;36.70
26541;DHT22;14206;50.202;10.948;2023-04-03T12:22:11;17.00;37.40
26541;DHT22;14206;50.202;10.948;2023-04-03T12:24:44;16.60;38.70
26541;DHT22;14206;50.202;10.948;2023-04-03T12:27:30;16.40;39.10
26541;DHT22;14206;50.202;10.948;2023-04-03T12:30:26;16.20;40.90
26541;DHT22;14206;50.202;10.948;2023-04-03T12:33:46;15.90;39.20
26541;DHT22;14206;50.202;10.948;2023-04-03T12:36:11;15.60;39.50
26541;DHT22;14206;50.202;10.948;2023-04-03T12:39:05;15.20;40.30
26541;DHT22;14206;50.202;10.948;2023-04-03T12:44:44;14.70;42.10
26541;DHT22;14206;50.202;10.948;2023-04-03T12:47:25;14.40;42.20
26541;DHT22;14206;50.202;10.948;2023-04-03T12:49:55;14.00;43.50
26541;DHT22;14206;50.202;10.948;2023-04-03T12:52:30;13.80;44.30
26541;DHT22;14206;50.202;10.948;2023-04-03T12:55:00;13.50;44.50
26541;DHT22;14206;50.202;10.948;2023-04-03T12:57:31;13.30;43.80
26541;DHT22;14206;50.202;10.948;2023-04-03T12:59:59;13.00;45.20
26541;DHT22;14206;50.202;10.948;2023-04-03T13:02:34;12.50;46.10
26541;DHT22;14206;50.202;10.948;2023-04-03T13:05:07;12.20;47.60
26541;DHT22;14206;50.202;10.948;2023-04-03T13:07:38;12.00;45.40
26541;DHT22;14206;50.202;10.948;2023-04-03T13:12:44;11.50;46.20
26541;DHT22;14206;50.202;10.948;2023-04-03T13:15:26;11.30;48.20
26541;DHT22;14206;50.202;10.948;2023-04-03T13:17:55;11.10;48.30
26541;DHT22;14206;50.202;10.948;2023-04-03T13:20:32;10.90;48.20
26541;DHT22;14206;50.202;10.948;2023-04-03T13:23:08;10.80;47.50
26541;DHT22;14206;50.202;10.948;2023-04-03T13:25:41;10.70;46.30
26541;DHT22;14206;50.202;10.948;2023-04-03T13:28:15;10.50;48.70
26541;DHT22;14206;50.202;10.948;2023-04-03T13:33:26;10.70;47.70
26541;DHT22;14206;50.202;10.948;2023-04-03T13:36:05;11.00;48.20
26541;DHT22;14206;50.202;10.948;2023-04-03T13:38:33;11.40;48.70
26541;DHT22;14206;50.202;10.948;2023-04-03T13:41:04;11.60;48.30
26541;DHT22;14206;50.202;10.948;2023-04-03T13:43:34;11.40;49.30
26541;DHT22;14206;50.202;10.948;2023-04-03T13:46:05;11.10;50.50
26541;DHT22;14206;50.202;10.948;2023-04-03T13:48:52;10.80;50.10
26541;DHT22;14206;50.202;10.948;2023-04-03T13:51:26;10.30;50.50
26541;DHT22;14206;50.202;10.948;2023-04-03T13:53:56;10.00;52.10
26541;DHT22;14206;50.202;10.948;2023-04-03T13:56:37;9.70;53.00
26541;DHT22;14206;50.202;10.948;2023-04-03T14:04:31;9.00;53.80
26541;DHT22;14206;50.202;10.948;2023-04-03T14:06:59;8.90;53.40
26541;DHT22;14206;50.202;10.948;2023-04-03T14:09:27;8.70;53.50
26541;DHT22;14206;50.202;10.948;2023-04-03T14:11:57;8.40;53.70
26541;DHT22;14206;50.202;10.948;2023-04-03T14:14:31;8.30;53.20
26541;DHT22;14206;50.202;10.948;2023-04-03T14:17:01;8.30;54.20
26541;DHT22;14206;50.202;10.948;2023-04-03T14:19:33;8.30;53.50
26541;DHT22;14206;50.202;10.948;2023-04-03T14:22:11;8.40;52.10
26541;DHT22;14206;50.202;10.948;2023-04-03T14:24:39;8.40;55.00
26541;DHT22;14206;50.202;10.948;2023-04-03T14:27:18;8.40;55.20
26541;DHT22;14206;50.202;10.948;2023-04-03T14:29:45;8.30;54.90
26541;DHT22;14206;50.202;10.948;2023-04-03T14:32:14;8.30;54.90
26541;DHT22;14206;50.202;10.948;2023-04-03T14:34:41;8.60;55.60
26541;DHT22;14206;50.202;10.948;2023-04-03T14:37:12;8.70;55.40
26541;DHT22;14206;50.202;10.948;2023-04-03T14:39:39;8.60;54.70
26541;DHT22;14206;50.202;10.948;2023-04-03T14:42:09;8.40;53.20
26541;DHT22;14206;50.202;10.948;2023-04-03T14:44:38;8.10;55.70
26541;DHT22;14206;50.202;10.948;2023-04-03T14:47:05;7.80;54.00
26541;DHT22;14206;50.202;10.948;2023-04-03T14:49:40;7.60;56.00
26541;DHT22;14206;50.202;10.948;2023-04-03T14:52:26;7.70;57.00
26541;DHT22;14206;50.202;10.948;2023-04-03T14:54:54;7.90;56.70
26541;DHT22;14206;50.202;10.948;2023-04-03T14:57:24;8.10;56.70
26541;DHT22;14206;50.202;10.948;2023-04-03T14:59:51;8.10;55.90
26541;DHT22;14206;50.202;10.948;2023-04-03T15:02:38;8.00;56.00
26541;DHT22;14206;50.202;10.948;2023-04-03T15:05:08;7.80;55.80
26541;DHT22;14206;50.202;10.948;2023-04-03T15:07:41;7.50;55.90
26541;DHT22;14206;50.202;10.948;2023-04-03T15:10:16;7.30;57.00
26541;DHT22;14206;50.202;10.948;2023-04-03T15:12:44;7.20;57.20
26541;DHT22;14206;50.202;10.948;2023-04-03T15:15:12;7.20;56.40
26541;DHT22;14206;50.202;10.948;2023-04-03T15:17:39;7.30;57.60
26541;DHT22;14206;50.202;10.948;2023-04-03T15:20:17;7.40;58.00
26541;DHT22;14206;50.202;10.948;2023-04-03T15:22:44;7.50;57.60
26541;DHT22;14206;50.202;10.948;2023-04-03T15:25:11;7.50;58.10
26541;DHT22;14206;50.202;10.948;2023-04-03T15:27:38;7.50;56.60
26541;DHT22;14206;50.202;10.948;2023-04-03T15:30:13;7.50;57.50
26541;DHT22;14206;50.202;10.948;2023-04-03T15:32:40;7.50;58.50
26541;DHT22;14206;50.202;10.948;2023-04-03T15:35:08;7.40;57.30
26541;DHT22;14206;50.202;10.948;2023-04-03T15:37:35;7.20;56.60
26541;DHT22;14206;50.202;10.948;2023-04-03T15:40:03;6.90;58.40
26541;DHT22;14206;50.202;10.948;2023-04-03T15:42:30;6.70;59.90
26541;DHT22;14206;50.202;10.948;2023-04-03T15:44:57;6.70;59.90
26541;DHT22;14206;50.202;10.948;2023-04-03T15:47:25;6.80;58.90
26541;DHT22;14206;50.202;10.948;2023-04-03T15:49:53;7.00;58.80
26541;DHT22;14206;50.202;10.948;2023-04-03T15:52:21;7.30;58.10
26541;DHT22;14206;50.202;10.948;2023-04-03T15:54:47;7.50;57.50
26541;DHT22;14206;50.202;10.948;2023-04-03T15:57:14;7.50;56.80
26541;DHT22;14206;50.202;10.948;2023-04-03T15:59:41;7.50;56.30
26541;DHT22;14206;50.202;10.948;2023-04-03T16:02:10;7.20;56.80
26541;DHT22;14206;50.202;10.948;2023-04-03T16:04:39;6.90;56.90
26541;DHT22;14206;50.202;10.948;2023-04-03T16:07:06;6.70;58.00
26541;DHT22;14206;50.202;10.948;2023-04-03T16:09:34;6.50;57.10
26541;DHT22;14206;50.202;10.948;2023-04-03T16:12:01;6.40;57.50
26541;DHT22;14206;50.202;10.948;2023-04-03T16:14:28;6.40;58.50
26541;DHT22;14206;50.202;10.948;2023-04-03T16:16:57;6.30;58.40
26541;DHT22;14206;50.202;10.948;2023-04-03T16:19:28;6.20;57.70
26541;DHT22;14206;50.202;10.948;2023-04-03T16:21:57;6.10;59.70
26541;DHT22;14206;50.202;10.948;2023-04-03T16:24:24;6.00;60.90
26541;DHT22;14206;50.202;10.948;2023-04-03T16:26:51;5.90;60.70
26541;DHT22;14206;50.202;10.948;2023-04-03T16:29:19;5.90;60.70
26541;DHT22;14206;50.202;10.948;2023-04-03T16:31:46;5.80;60.00
26541;DHT22;14206;50.202;10.948;2023-04-03T16:34:13;5.80;59.40
26541;DHT22;14206;50.202;10.948;2023-04-03T16:36:40;5.70;59.90
26541;DHT22;14206;50.202;10.948;2023-04-03T16:39:07;5.60;59.70
26541;DHT22;14206;50.202;10.948;2023-04-03T16:41:36;5.50;59.90
26541;DHT22;14206;50.202;10.948;2023-04-03T16:44:03;5.40;60.30
26541;DHT22;14206;50.202;10.948;2023-04-03T16:46:29;5.30;59.80
26541;DHT22;14206;50.202;10.948;2023-04-03T16:48:56;5.20;61.30
26541;DHT22;14206;50.202;10.948;2023-04-03T16:51:23;5.20;62.00
26541;DHT22;14206;50.202;10.948;2023-04-03T16:53:50;5.20;61.50
26541;DHT22;14206;50.202;10.948;2023-04-03T16:56:17;5.20;62.50
26541;DHT22;14206;50.202;10.948;2023-04-03T16:58:44;5.20;61.80
26541;DHT22;14206;50.202;10.948;2023-04-03T17:01:16;5.10;61.70
26541;DHT22;14206;50.202;10.948;2023-04-03T17:03:44;4.90;60.70
26541;DHT22;14206;50.202;10.948;2023-04-03T17:06:12;4.90;62.60
26541;DHT22;14206;50.202;10.948;2023-04-03T17:08:44;4.80;62.10
26541;DHT22;14206;50.202;10.948;2023-04-03T17:11:26;4.70;62.40
26541;DHT22;14206;50.202;10.948;2023-04-03T17:13:53;4.70;63.30
26541;DHT22;14206;50.202;10.948;2023-04-03T17:16:20;4.70;63.30
26541;DHT22;14206;50.202;10.948;2023-04-03T17:18:47;4.70;63.70